createdAt,value
2023-01-12T00:05:37.951Z,7.10
2023-01-12T00:08:05.375Z,7.30
2023-01-12T00:10:32.285Z,7.20
2023-01-12T00:12:59.141Z,7.60
2023-01-12T00:15:44.754Z,7.40
2023-01-12T00:18:11.648Z,8.40
2023-01-12T00:20:38.485Z,6.80
2023-01-12T00:23:05.490Z,6.90
2023-01-12T00:25:32.334Z,7.20
2023-01-12T00:27:59.144Z,8.20
2023-01-12T00:30:25.936Z,8.40
2023-01-12T00:32:52.670Z,8.40
2023-01-12T00:35:19.544Z,7.00
2023-01-12T00:37:46.397Z,8.70
2023-01-12T00:40:13.236Z,7.60
2023-01-12T00:42:59.023Z,7.80
2023-01-12T00:45:25.846Z,8.00
2023-01-12T00:47:53.648Z,9.00
2023-01-12T00:50:20.592Z,9.30
2023-01-12T00:52:47.421Z,8.60
2023-01-12T00:55:14.609Z,8.60
2023-01-12T00:57:41.423Z,8.30
2023-01-12T01:00:09.200Z,6.60
2023-01-12T01:02:36.111Z,8.20
2023-01-12T01:05:03.101Z,7.30
2023-01-12T01:07:29.898Z,8.20
2023-01-12T01:09:56.701Z,8.20
2023-01-12T01:12:23.540Z,8.70
2023-01-12T01:14:50.394Z,8.90
2023-01-12T01:17:17.295Z,8.30
2023-01-12T01:19:44.157Z,10.40
2023-01-12T01:22:13.023Z,9.10
2023-01-12T01:24:41.015Z,8.50
2023-01-12T01:27:07.866Z,8.50
2023-01-12T01:29:34.634Z,8.10
2023-01-12T01:32:01.546Z,9.70
2023-01-12T01:34:28.268Z,9.50
2023-01-12T01:36:55.036Z,11.90
2023-01-12T01:39:21.892Z,11.60
2023-01-12T01:41:48.711Z,11.30
2023-01-12T01:44:30.996Z,14.30
2023-01-12T01:47:27.725Z,14.80
2023-01-12T01:49:55.171Z,8.40
2023-01-12T01:52:21.953Z,8.20
2023-01-12T01:54:54.917Z,9.30
2023-01-12T01:57:24.661Z,9.50
2023-01-12T01:59:53.133Z,9.80
2023-01-12T02:02:19.939Z,9.60
2023-01-12T02:04:46.715Z,9.00
2023-01-12T02:07:13.521Z,9.10
2023-01-12T02:09:40.345Z,8.70
2023-01-12T02:12:26.321Z,7.00
2023-01-12T02:15:12.044Z,7.20
2023-01-12T02:18:14.379Z,7.90
2023-01-12T02:21:05.768Z,8.60
2023-01-12T02:24:05.028Z,7.90
2023-01-12T02:27:10.044Z,12.10
2023-01-12T02:29:57.821Z,8.00
2023-01-12T02:32:36.868Z,8.20
2023-01-12T02:37:58.305Z,9.00
2023-01-12T02:40:59.561Z,7.20
2023-01-12T02:43:29.155Z,9.90
2023-01-12T02:46:01.631Z,8.10
2023-01-12T02:48:31.288Z,7.00
2023-01-12T02:51:14.167Z,6.90
2023-01-12T02:53:50.141Z,7.20
2023-01-12T02:56:28.215Z,6.60
2023-01-12T02:58:56.868Z,7.40
2023-01-12T03:01:24.431Z,7.90
2023-01-12T03:03:51.235Z,8.70
2023-01-12T03:06:18.457Z,9.20
2023-01-12T03:08:46.228Z,9.20
2023-01-12T03:11:17.052Z,11.70
2023-01-12T03:13:48.903Z,8.80
2023-01-12T03:16:18.123Z,8.80
2023-01-12T03:18:51.382Z,9.30
2023-01-12T03:21:30.784Z,9.80
2023-01-12T03:24:02.833Z,8.90
2023-01-12T03:26:29.654Z,9.10
2023-01-12T03:29:09.612Z,7.70
2023-01-12T03:31:36.950Z,6.80
2023-01-12T03:34:05.010Z,6.40
2023-01-12T03:36:38.697Z,7.10
2023-01-12T03:39:13.765Z,8.10
2023-01-12T03:41:45.922Z,7.80
2023-01-12T03:44:19.460Z,7.70
2023-01-12T03:46:53.978Z,7.50
2023-01-12T03:49:25.478Z,7.80
2023-01-12T03:51:52.308Z,7.40
2023-01-12T03:54:19.294Z,7.80
2023-01-12T03:56:46.158Z,9.30
2023-01-12T03:59:12.913Z,10.30
2023-01-12T04:01:41.863Z,6.70
2023-01-12T04:06:35.510Z,6.50
2023-01-12T04:09:02.427Z,7.70
2023-01-12T04:11:47.968Z,7.80
2023-01-12T04:14:14.851Z,9.50
2023-01-12T04:16:41.654Z,12.50
2023-01-12T04:19:08.709Z,10.90
2023-01-12T04:21:54.242Z,9.80
2023-01-12T04:24:21.141Z,11.20
2023-01-12T04:26:48.009Z,12.10
2023-01-12T04:29:14.826Z,8.60
2023-01-12T04:31:41.705Z,7.90
2023-01-12T04:34:08.815Z,9.80
2023-01-12T04:36:35.877Z,12.70
2023-01-12T04:39:03.128Z,12.00
2023-01-12T04:41:31.100Z,9.90
2023-01-12T04:43:58.352Z,10.40
2023-01-12T04:46:25.558Z,11.20
2023-01-12T04:48:52.654Z,7.20
2023-01-12T04:51:19.673Z,7.40
2023-01-12T04:53:48.295Z,8.00
2023-01-12T04:56:15.363Z,8.40
2023-01-12T04:58:42.553Z,7.00
2023-01-12T05:01:14.885Z,8.10
2023-01-12T05:03:43.001Z,8.40
2023-01-12T05:06:10.218Z,8.80
2023-01-12T05:08:56.013Z,9.10
2023-01-12T05:11:28.693Z,10.00
2023-01-12T05:13:56.905Z,9.90
2023-01-12T05:16:24.789Z,9.10
2023-01-12T05:18:53.496Z,8.30
2023-01-12T05:21:22.569Z,10.70
2023-01-12T05:23:51.290Z,7.70
2023-01-12T05:26:18.606Z,6.40
2023-01-12T05:28:48.988Z,6.00
2023-01-12T05:31:16.346Z,6.80
2023-01-12T05:33:43.631Z,7.60
2023-01-12T05:36:12.474Z,6.80
2023-01-12T05:38:39.796Z,9.00
2023-01-12T05:41:10.404Z,7.90
2023-01-12T05:43:52.956Z,9.60
2023-01-12T05:46:28.235Z,9.00
2023-01-12T05:48:55.943Z,8.10
2023-01-12T05:51:23.725Z,11.00
2023-01-12T05:53:50.890Z,8.80
2023-01-12T05:56:20.127Z,9.40
2023-01-12T05:58:51.629Z,12.20
2023-01-12T06:01:18.628Z,11.20
2023-01-12T06:03:51.912Z,11.50
2023-01-12T06:06:19.996Z,10.90
2023-01-12T06:08:47.355Z,9.50
2023-01-12T06:11:32.897Z,12.70
2023-01-12T06:14:00.768Z,13.50
2023-01-12T06:16:28.275Z,19.00
2023-01-12T06:18:55.981Z,15.50
2023-01-12T06:21:25.037Z,15.20
2023-01-12T06:26:19.286Z,14.70
2023-01-12T06:28:46.488Z,12.30
2023-01-12T06:31:13.693Z,19.80
2023-01-12T06:33:41.269Z,16.30
2023-01-12T06:36:08.820Z,15.30
2023-01-12T06:38:37.362Z,16.70
2023-01-12T06:41:29.339Z,17.90
2023-01-12T06:43:57.035Z,18.40
2023-01-12T06:46:24.352Z,15.20
2023-01-12T06:48:51.642Z,14.40
2023-01-12T06:51:18.625Z,12.30
2023-01-12T06:53:45.760Z,13.70
2023-01-12T06:56:13.149Z,14.80
2023-01-12T06:58:43.673Z,15.50
2023-01-12T07:01:13.936Z,16.40
2023-01-12T07:03:41.029Z,19.00
2023-01-12T07:06:08.405Z,13.60
2023-01-12T07:08:35.966Z,13.00
2023-01-12T07:11:04.410Z,13.30
2023-01-12T07:13:31.807Z,13.60
2023-01-12T07:16:02.028Z,13.80
2023-01-12T10:54:28.217Z,22.20
2023-01-12T10:56:57.586Z,31.20
2023-01-12T10:59:29.638Z,21.90
2023-01-12T11:02:06.701Z,13.60
2023-01-12T11:04:43.993Z,15.80
2023-01-12T11:07:22.347Z,16.00
2023-01-12T11:09:49.367Z,18.60
2023-01-12T11:12:20.350Z,15.20
2023-01-12T11:15:14.980Z,14.90
2023-01-12T11:17:49.595Z,14.20
2023-01-12T11:20:54.558Z,15.00
2023-01-12T11:23:33.258Z,12.10
2023-01-12T11:26:01.323Z,12.40
2023-01-12T11:28:34.695Z,16.60
2023-01-12T11:31:15.868Z,15.30
2023-01-12T11:33:55.132Z,16.20
2023-01-12T11:36:30.643Z,13.00
2023-01-12T11:39:01.805Z,11.30
2023-01-12T11:41:34.327Z,13.40
2023-01-12T11:44:28.553Z,20.20
2023-01-12T11:46:59.768Z,16.70
2023-01-12T11:49:39.575Z,26.40
2023-01-12T11:52:09.076Z,32.10
2023-01-12T11:54:36.431Z,19.40
2023-01-12T11:57:25.101Z,21.90
2023-01-12T12:00:01.270Z,23.80
2023-01-12T12:02:39.010Z,22.40
2023-01-12T12:05:18.927Z,23.70
2023-01-12T12:07:49.665Z,30.10
2023-01-12T12:10:24.054Z,25.10
2023-01-12T12:13:11.229Z,28.00
2023-01-12T12:15:56.193Z,23.60
2023-01-12T12:18:41.636Z,30.80
2023-01-12T12:21:32.634Z,34.70
2023-01-12T12:24:06.743Z,20.40
2023-01-12T12:26:39.719Z,12.90
2023-01-12T12:29:19.982Z,13.60
2023-01-12T12:31:52.982Z,11.90
2023-01-12T12:34:27.903Z,13.70
2023-01-12T12:37:02.933Z,13.10
2023-01-12T12:39:56.072Z,15.70
2023-01-12T12:43:06.404Z,16.30
2023-01-12T12:45:43.333Z,13.90
2023-01-12T12:48:21.135Z,14.40
2023-01-12T12:51:03.122Z,16.30
2023-01-12T12:53:33.408Z,15.50
2023-01-12T12:56:11.156Z,16.10
2023-01-12T12:58:44.984Z,16.40
2023-01-12T13:01:21.330Z,17.40
2023-01-12T13:03:49.194Z,16.90
2023-01-12T13:06:29.345Z,15.50
2023-01-12T13:08:57.626Z,17.50
2023-01-12T18:09:26.106Z,25.00
2023-01-12T18:11:52.993Z,22.70
2023-01-12T18:14:21.485Z,24.30
2023-01-12T18:16:48.284Z,23.00
2023-01-12T18:19:15.152Z,19.80
2023-01-12T18:21:42.082Z,19.70
2023-01-12T18:24:09.005Z,20.90
2023-01-12T18:26:36.087Z,22.00
2023-01-12T18:29:04.474Z,23.90
2023-01-12T18:31:32.281Z,24.70
2023-01-12T18:34:06.297Z,24.80
2023-01-12T18:36:37.870Z,24.30
2023-01-12T18:39:06.190Z,24.10
2023-01-12T18:41:51.931Z,25.20
2023-01-12T18:44:18.730Z,28.20
2023-01-12T18:47:04.281Z,28.90
2023-01-12T18:49:33.375Z,24.70
2023-01-12T18:54:48.236Z,28.50
2023-01-12T18:57:19.310Z,34.00
2023-01-12T18:59:46.754Z,34.80
2023-01-12T19:02:13.927Z,32.50
2023-01-12T19:04:43.726Z,32.90
2023-01-12T19:07:12.916Z,31.00
2023-01-12T19:09:39.860Z,31.20
2023-01-12T19:12:06.908Z,31.20
2023-01-12T19:14:52.799Z,31.70
2023-01-12T19:17:32.777Z,30.10
2023-01-12T19:20:01.547Z,25.60
2023-01-12T19:22:47.225Z,27.40
2023-01-12T19:25:33.926Z,30.00
2023-01-12T19:28:19.830Z,30.10
2023-01-12T19:30:46.937Z,28.80
2023-01-12T19:33:17.367Z,27.00
2023-01-12T19:35:45.359Z,23.20
2023-01-12T19:38:15.382Z,24.70
2023-01-12T19:40:49.687Z,24.00
2023-01-12T19:43:20.454Z,25.30
2023-01-12T19:45:49.634Z,24.20
2023-01-12T19:48:17.660Z,23.40
2023-01-12T19:50:44.956Z,23.70
2023-01-12T19:53:13.472Z,24.90
2023-01-12T19:55:41.276Z,17.60
2023-01-12T19:58:09.498Z,21.50
2023-01-12T20:00:39.283Z,17.90
2023-01-12T20:03:06.394Z,19.60
2023-01-12T20:05:33.305Z,21.60
2023-01-12T20:08:00.227Z,21.70
2023-01-12T20:10:27.116Z,21.60
2023-01-12T20:12:54.838Z,23.10
2023-01-12T20:15:22.029Z,21.40
2023-01-12T20:17:49.444Z,24.20
2023-01-12T20:20:16.999Z,26.20
2023-01-12T20:22:44.145Z,25.60
2023-01-12T20:25:11.087Z,29.50
2023-01-12T20:27:38.135Z,29.80
2023-01-12T20:30:06.017Z,29.20
2023-01-12T20:32:34.981Z,30.40
2023-01-12T20:35:05.927Z,28.60
2023-01-12T20:37:33.799Z,24.10
2023-01-12T20:40:00.954Z,22.30
2023-01-12T20:42:29.296Z,23.80
2023-01-12T20:44:57.587Z,24.30
2023-01-12T20:47:28.480Z,24.70
2023-01-12T20:49:55.896Z,24.00
2023-01-12T20:52:23.867Z,21.40
2023-01-12T20:54:50.745Z,25.90
2023-01-12T20:57:17.720Z,29.20
2023-01-12T20:59:44.689Z,36.60
2023-01-12T21:02:29.871Z,34.20
2023-01-12T21:04:56.678Z,25.40
2023-01-12T21:07:23.659Z,35.20
2023-01-12T21:09:50.500Z,24.90
2023-01-12T21:12:17.352Z,27.30
2023-01-12T21:14:44.131Z,33.10
2023-01-12T21:17:11.749Z,39.60
2023-01-12T21:19:38.692Z,31.70
2023-01-12T21:22:05.501Z,23.20
2023-01-12T21:24:32.478Z,18.30
2023-01-12T21:26:59.430Z,16.70
2023-01-12T21:29:26.413Z,14.20
2023-01-12T21:31:53.463Z,16.50
2023-01-12T21:34:20.504Z,16.00
2023-01-12T21:36:47.521Z,16.10
2023-01-12T21:39:14.533Z,19.30
2023-01-12T21:42:00.219Z,21.30
2023-01-12T21:44:27.807Z,15.90
2023-01-12T21:46:54.571Z,17.00
2023-01-12T21:49:21.458Z,21.90
2023-01-12T21:51:48.258Z,24.50
2023-01-12T21:54:15.071Z,21.70
2023-01-12T21:56:41.918Z,17.90
2023-01-12T21:59:10.452Z,15.90
2023-01-12T22:01:37.235Z,23.50
2023-01-12T22:04:04.359Z,15.30
2023-01-12T22:06:31.338Z,13.40
2023-01-12T22:08:58.715Z,14.50
2023-01-12T22:11:25.583Z,14.80
2023-01-12T22:13:52.572Z,15.80
2023-01-12T22:16:19.441Z,15.50
2023-01-12T22:18:49.393Z,14.50
2023-01-12T22:21:17.136Z,13.50
2023-01-12T22:23:44.054Z,29.00
2023-01-12T22:26:12.553Z,18.20
2023-01-12T22:28:41.176Z,20.10
2023-01-12T22:31:09.154Z,25.00
2023-01-12T22:33:36.685Z,16.00
2023-01-12T22:36:04.665Z,23.90
2023-01-12T22:38:31.565Z,18.60
2023-01-12T22:41:06.386Z,17.90
2023-01-12T22:43:38.717Z,18.70
2023-01-12T22:46:05.579Z,17.20
2023-01-12T22:48:32.488Z,17.30
2023-01-12T22:50:59.886Z,14.70
2023-01-12T22:53:26.723Z,19.30
2023-01-12T22:55:53.549Z,17.20
2023-01-12T22:58:20.424Z,15.10
2023-01-12T23:00:48.903Z,14.20
2023-01-12T23:03:15.987Z,17.20
2023-01-12T23:05:46.010Z,17.80
2023-01-12T23:08:13.939Z,17.80
2023-01-12T23:10:41.498Z,16.60
2023-01-12T23:13:11.853Z,15.30
2023-01-12T23:15:43.504Z,16.40
2023-01-12T23:18:10.727Z,20.10
2023-01-12T23:20:38.390Z,16.10
2023-01-12T23:23:06.046Z,17.50
2023-01-12T23:25:33.545Z,19.90
2023-01-12T23:28:00.756Z,20.60
2023-01-12T23:30:30.868Z,18.00
2023-01-12T23:33:01.410Z,17.30
2023-01-12T23:35:28.349Z,18.40
2023-01-12T23:37:55.300Z,16.00
2023-01-12T23:40:22.257Z,36.30
2023-01-12T23:42:49.287Z,39.50
2023-01-12T23:45:16.339Z,30.80
2023-01-12T23:47:43.289Z,19.10
2023-01-12T23:50:11.576Z,16.60
2023-01-12T23:52:38.567Z,16.60
2023-01-12T23:55:05.958Z,21.90
2023-01-12T23:57:33.921Z,29.20
